Time;durP1;ratioP1;P1;durP2;ratioP2;P2;SDS_P1;SDS_P2;PMS_P1;PMS_P2;Temp;Humidity;BMP_temperature;BMP_pressure;BME280_temperature;BME280_humidity;BME280_pressure;Samples;Min_cycle;Max_cycle;Signal;HPM_P1;HPM_P2
2023/04/18 00:01:23;;;;;;;10.68;6.78;;;7.00;99.90;;;5.85;100.00;101925.41;5065187;28;20078;-76
2023/04/18 00:03:49;;;;;;;10.95;6.57;;;6.90;99.90;;;6.01;100.00;101927.47;5068223;28;20050;-76
2023/04/18 00:06:15;;;;;;;10.98;6.75;;;6.90;99.90;;;6.01;100.00;101932.00;5070741;28;20028;-75
2023/04/18 00:08:40;;;;;;;11.30;7.40;;;6.90;99.90;;;5.85;100.00;101906.47;5063124;28;20036;-76
2023/04/18 00:11:06;;;;;;;10.73;7.85;;;6.90;99.90;;;5.93;100.00;101919.19;5064639;28;20038;-75
2023/04/18 00:13:32;;;;;;;10.55;6.90;;;6.80;99.90;;;5.73;100.00;101904.97;5061125;28;20036;-76
2023/04/18 00:15:58;;;;;;;10.68;6.90;;;6.80;99.90;;;5.82;100.00;101935.69;5063855;28;20036;-75
2023/04/18 00:18:27;;;;;;;10.95;7.45;;;6.70;99.90;;;5.78;100.00;101927.00;5060042;28;20037;-75
2023/04/18 00:20:53;;;;;;;11.25;7.00;;;6.70;99.90;;;5.82;100.00;101928.41;5068819;28;20029;-76
2023/04/18 00:23:20;;;;;;;14.50;7.85;;;6.60;99.90;;;5.72;100.00;101922.22;5075581;28;20080;-76
2023/04/18 00:25:47;;;;;;;12.45;7.78;;;6.60;99.90;;;5.85;100.00;101924.56;5057000;28;20064;-76
2023/04/18 00:28:12;;;;;;;13.52;8.50;;;6.60;99.90;;;5.83;100.00;101927.41;5060088;28;20043;-76
2023/04/18 00:30:38;;;;;;;12.63;9.00;;;6.60;99.90;;;5.82;100.00;101920.28;5073671;28;20044;-75
2023/04/18 00:33:05;;;;;;;12.63;8.50;;;6.50;99.90;;;5.84;100.00;101909.31;5069252;28;20028;-75
2023/04/18 00:35:30;;;;;;;14.05;8.68;;;6.50;99.90;;;5.84;100.00;101931.84;5057133;28;20055;-76
2023/04/18 00:37:57;;;;;;;13.15;8.43;;;6.50;99.90;;;5.75;100.00;101916.50;5067410;28;20029;-75
2023/04/18 00:40:23;;;;;;;13.93;8.50;;;6.50;99.90;;;5.81;100.00;101917.75;5053009;28;20033;-75
2023/04/18 00:42:49;;;;;;;14.57;8.90;;;6.50;99.90;;;5.77;100.00;101922.59;5050933;28;20044;-75
2023/04/18 00:45:15;;;;;;;12.50;8.23;;;6.50;99.90;;;5.84;100.00;101928.25;5052307;28;20388;-76
2023/04/18 00:47:41;;;;;;;12.05;7.80;;;6.50;99.90;;;5.80;100.00;101911.47;5068303;28;20039;-76
2023/04/18 00:50:09;;;;;;;16.38;8.85;;;6.50;99.90;;;5.88;100.00;101927.81;5072600;28;20044;-76
2023/04/18 00:52:35;;;;;;;14.50;8.18;;;6.50;99.90;;;5.94;100.00;101925.50;5061152;28;20040;-76
2023/04/18 00:55:06;;;;;;;13.32;8.52;;;6.50;99.90;;;5.71;100.00;101898.84;5068781;28;20077;-76
2023/04/18 00:57:33;;;;;;;13.85;8.10;;;6.50;99.90;;;5.89;100.00;101915.97;5058741;28;20115;-78
2023/04/18 01:00:01;;;;;;;12.25;8.27;;;6.50;99.90;;;5.89;100.00;101921.38;5059669;28;20055;-75
2023/04/18 01:02:30;;;;;;;10.82;7.53;;;6.50;99.90;;;5.92;100.00;101922.09;5057421;28;20033;-78
2023/04/18 01:04:57;;;;;;;14.18;8.40;;;6.50;99.90;;;5.93;100.00;101921.06;5059247;28;20039;-78
2023/04/18 01:07:25;;;;;;;14.88;8.95;;;6.50;99.90;;;5.94;100.00;101910.06;5063562;28;20060;-78
2023/04/18 01:09:54;;;;;;;13.88;9.23;;;6.50;99.90;;;6.03;100.00;101924.56;5051053;28;20117;-76
2023/04/18 01:12:20;;;;;;;15.40;8.70;;;6.50;99.90;;;6.00;100.00;101919.44;5045899;28;20037;-76
2023/04/18 01:14:46;;;;;;;13.45;8.57;;;6.50;99.90;;;6.02;100.00;101918.31;5061730;28;20051;-77
2023/04/18 01:17:12;;;;;;;14.27;8.93;;;6.50;99.90;;;5.86;100.00;101902.75;5058205;28;20039;-77
2023/04/18 01:19:38;;;;;;;14.65;9.43;;;6.50;99.90;;;5.95;100.00;101919.06;5056984;28;20064;-77
2023/04/18 01:22:07;;;;;;;14.52;9.30;;;6.50;99.90;;;5.89;100.00;101905.13;5062555;28;20349;-77
2023/04/18 01:24:32;;;;;;;13.40;8.98;;;6.50;99.90;;;5.92;100.00;101919.38;5055235;28;20113;-75
2023/04/18 01:26:58;;;;;;;15.30;9.32;;;6.40;99.90;;;5.83;100.00;101897.59;5060233;28;20546;-77
2023/04/18 01:29:25;;;;;;;14.20;9.70;;;6.50;99.90;;;5.83;100.00;101897.59;5061975;28;20424;-77
2023/04/18 01:31:51;;;;;;;15.32;9.73;;;6.50;99.90;;;5.94;100.00;101909.22;5062324;28;20041;-77
2023/04/18 01:34:17;;;;;;;15.63;9.48;;;6.40;99.90;;;5.84;100.00;101910.19;5066100;28;20112;-77
2023/04/18 01:36:43;;;;;;;17.10;10.63;;;6.40;99.90;;;5.93;100.00;101918.38;5069893;28;20048;-77
2023/04/18 01:39:11;;;;;;;17.20;9.87;;;6.40;99.90;;;5.93;100.00;101912.94;5050925;28;20041;-77
2023/04/18 01:41:37;;;;;;;17.00;10.05;;;6.40;99.90;;;5.99;100.00;101910.47;5060824;28;20481;-76
2023/04/18 01:44:03;;;;;;;18.20;9.93;;;6.40;99.90;;;5.98;100.00;101916.03;5062511;28;20086;-76
2023/04/18 01:46:30;;;;;;;16.60;10.52;;;6.40;99.90;;;5.82;100.00;101884.25;5055691;28;20032;-76
2023/04/18 01:48:57;;;;;;;19.77;10.50;;;6.40;99.90;;;5.95;100.00;101910.94;5065231;28;20036;-77
2023/04/18 01:51:23;;;;;;;17.30;10.10;;;6.40;99.90;;;5.94;100.00;101903.81;5064680;28;20033;-77
2023/04/18 01:53:49;;;;;;;19.45;10.57;;;6.40;99.90;;;5.94;100.00;101914.66;5063330;28;20415;-77
2023/04/18 01:56:14;;;;;;;17.30;10.85;;;6.40;99.90;;;5.80;100.00;101897.91;5057997;28;20040;-77
2023/04/18 01:58:40;;;;;;;19.58;11.32;;;6.30;99.90;;;5.75;100.00;101884.00;5051115;28;20041;-76
2023/04/18 02:01:06;;;;;;;19.77;11.68;;;6.30;99.90;;;5.76;100.00;101904.66;5055174;28;20039;-76
2023/04/18 02:03:32;;;;;;;17.80;10.88;;;6.30;99.90;;;5.73;100.00;101880.59;5064594;28;20040;-76
2023/04/18 02:06:02;;;;;;;20.73;11.65;;;6.30;99.90;;;5.68;100.00;101891.03;5052513;28;20389;-76
2023/04/18 02:08:29;;;;;;;18.95;11.45;;;6.20;99.90;;;5.66;100.00;101891.19;5054226;28;20036;-76
2023/04/18 02:10:55;;;;;;;22.75;12.73;;;6.20;99.90;;;5.63;100.00;101882.53;5064609;28;20029;-77
2023/04/18 02:13:21;;;;;;;21.95;12.23;;;6.10;99.90;;;5.63;100.00;101890.66;5054174;28;20137;-76
2023/04/18 02:15:47;;;;;;;21.05;12.73;;;6.10;99.90;;;5.60;100.00;101884.56;5065212;28;20412;-76
2023/04/18 02:18:16;;;;;;;20.55;12.57;;;6.10;99.90;;;5.66;100.00;101883.06;5067566;28;20107;-77
2023/04/18 02:20:41;;;;;;;21.55;13.48;;;6.00;99.90;;;5.63;100.00;101883.38;5064003;28;20153;-77
2023/04/18 02:23:07;;;;;;;19.55;12.65;;;6.00;99.90;;;5.61;100.00;101891.66;5064578;28;20036;-77
2023/04/18 02:25:33;;;;;;;22.05;13.25;;;6.00;99.90;;;5.59;100.00;101879.28;5055825;28;20036;-77
2023/04/18 02:27:59;;;;;;;22.20;12.60;;;6.00;99.90;;;5.46;100.00;101864.28;5062228;28;20044;-76
2023/04/18 02:30:25;;;;;;;21.63;13.02;;;5.90;99.90;;;5.50;100.00;101872.91;5063079;28;20479;-76
2023/04/18 02:32:58;;;;;;;23.17;13.48;;;5.90;99.90;;;5.43;100.00;101852.88;5065651;28;20036;-76
2023/04/18 02:35:25;;;;;;;27.13;13.98;;;5.90;99.90;;;5.45;100.00;101869.81;5061835;28;20045;-77
2023/04/18 02:37:51;;;;;;;23.40;13.95;;;5.90;99.90;;;5.41;100.00;101858.44;5063093;28;20115;-77
2023/04/18 02:40:17;;;;;;;21.80;13.63;;;5.90;99.90;;;5.51;100.00;101869.22;5061741;28;20128;-76
2023/04/18 02:42:43;;;;;;;23.42;14.20;;;5.90;99.90;;;5.51;100.00;101871.91;5041143;28;20041;-77
2023/04/18 02:45:13;;;;;;;23.42;14.45;;;5.90;99.90;;;5.54;100.00;101874.31;5052233;28;20088;-76
2023/04/18 02:47:40;;;;;;;26.00;15.50;;;5.90;99.90;;;5.60;100.00;101867.44;5052709;28;20060;-77
2023/04/18 02:50:06;;;;;;;27.85;14.70;;;5.90;99.90;;;5.59;100.00;101873.84;5067208;28;20483;-76
2023/04/18 02:52:33;;;;;;;22.20;14.57;;;5.90;99.90;;;5.27;100.00;101838.16;5070380;28;20033;-75
2023/04/18 02:54:58;;;;;;;25.20;15.32;;;5.90;99.90;;;5.45;100.00;101861.69;5056670;28;20066;-76
2023/04/18 02:57:29;;;;;;;25.02;14.80;;;5.90;99.90;;;5.57;100.00;101875.88;5061020;28;20501;-76
2023/04/18 03:00:20;;;;;;;27.30;15.98;;;5.90;99.90;;;5.38;100.00;101860.63;5056585;28;20051;-76
2023/04/18 03:02:57;;;;;;;24.60;14.77;;;5.90;99.90;;;5.44;100.00;101860.00;5044372;28;20036;-76
2023/04/18 03:05:46;;;;;;;23.92;14.55;;;5.90;99.90;;;5.47;100.00;101857.84;5065983;28;20182;-76
2023/04/18 03:08:11;;;;;;;24.25;15.45;;;5.90;99.90;;;5.55;100.00;101870.59;5059689;28;20036;-76
2023/04/18 03:10:38;;;;;;;25.02;15.32;;;5.90;99.90;;;5.61;100.00;101878.13;5072792;28;20502;-76
2023/04/18 03:13:04;;;;;;;27.10;15.10;;;5.90;99.90;;;5.59;100.00;101885.56;5070588;28;20036;-75
2023/04/18 03:15:30;;;;;;;25.25;15.55;;;5.90;99.90;;;5.64;100.00;101887.78;5063872;28;20385;-75
2023/04/18 03:17:58;;;;;;;26.38;14.95;;;5.90;99.90;;;5.57;100.00;101868.63;5059130;28;20037;-75
2023/04/18 03:20:25;;;;;;;26.65;14.88;;;5.90;99.90;;;5.70;100.00;101889.03;5060182;28;20464;-75
2023/04/18 03:22:51;;;;;;;26.02;15.23;;;5.90;99.90;;;5.60;100.00;101889.97;5064336;28;20115;-75
2023/04/18 03:25:22;;;;;;;27.85;15.75;;;6.00;99.90;;;5.60;100.00;101889.97;5054514;28;20040;-76
2023/04/18 03:27:51;;;;;;;29.05;17.27;;;5.90;99.90;;;5.52;100.00;101887.16;5064965;28;20043;-76
2023/04/18 03:30:19;;;;;;;30.13;16.52;;;5.90;99.90;;;5.58;100.00;101888.41;5061251;28;20496;-78
2023/04/18 03:32:54;;;;;;;33.05;16.13;;;6.00;99.90;;;5.21;100.00;101808.19;5060954;28;20067;-78
2023/04/18 03:35:21;;;;;;;28.50;17.65;;;6.00;99.90;;;5.65;100.00;101886.78;5063087;28;20056;-76
2023/04/18 03:37:46;;;;;;;26.13;15.85;;;6.00;99.90;;;5.69;100.00;101900.88;5057394;28;20087;-76
2023/04/18 03:40:19;;;;;;;28.95;17.15;;;6.00;99.90;;;5.79;100.00;101895.38;5053153;28;20048;-77
2023/04/18 03:42:47;;;;;;;;;;;6.00;99.90;;;5.85;100.00;101905.59;5069345;28;20037;-77
2023/04/18 03:45:15;;;;;;;26.75;16.08;;;6.00;99.90;;;5.71;100.00;101901.56;5052423;28;19924;-76
2023/04/18 03:47:44;;;;;;;25.92;16.00;;;6.00;99.90;;;5.90;100.00;101912.25;5059560;28;20039;-76
2023/04/18 03:50:10;;;;;;;23.13;14.80;;;6.00;99.90;;;5.90;100.00;101917.66;5052325;28;20029;-77
2023/04/18 03:52:36;;;;;;;25.52;15.80;;;6.00;99.90;;;5.88;100.00;101919.69;5071491;28;20036;-77
2023/04/18 03:55:04;;;;;;;27.35;15.10;;;6.10;99.90;;;5.84;100.00;101921.00;5063123;28;20094;-78
2023/04/18 03:57:32;;;;;;;25.70;14.75;;;6.10;99.90;;;5.84;100.00;101910.19;5062593;28;20025;-78
2023/04/18 03:59:59;;;;;;;26.60;15.30;;;6.10;99.90;;;5.93;100.00;101930.03;5041219;28;20048;-77
2023/04/18 04:02:27;;;;;;;23.20;14.48;;;6.10;99.90;;;5.93;100.00;101930.03;5047478;28;20056;-77
2023/04/18 04:04:53;;;;;;;25.05;14.95;;;6.10;99.90;;;5.89;100.00;101923.22;5049522;28;20036;-77
2023/04/18 04:07:19;;;;;;;23.67;14.77;;;6.10;99.90;;;5.88;100.00;101919.69;5062355;28;20082;-77
2023/04/18 04:09:46;;;;;;;25.15;15.43;;;6.10;99.90;;;5.95;100.00;101921.78;5055792;28;20047;-77
2023/04/18 04:12:12;;;;;;;25.88;14.75;;;6.10;99.90;;;6.02;100.00;101939.13;5061868;28;20480;-77
2023/04/18 04:14:38;;;;;;;24.52;14.75;;;6.10;99.90;;;5.97;100.00;101930.59;5066760;28;20400;-77
2023/04/18 04:17:04;;;;;;;24.15;14.77;;;6.10;99.90;;;5.85;100.00;101921.84;5052573;28;20176;-77
2023/04/18 04:19:30;;;;;;;23.48;13.88;;;6.10;99.90;;;5.88;100.00;101941.34;5054838;28;20393;-77
2023/04/18 04:22:17;;;;;;;25.50;14.68;;;6.10;99.90;;;5.83;100.00;101918.44;5063394;28;20025;-77
2023/04/18 04:24:45;;;;;;;21.70;13.68;;;6.10;99.90;;;5.96;100.00;101934.31;5054898;28;20048;-76
2023/04/18 04:27:13;;;;;;;23.50;14.07;;;6.10;99.90;;;5.58;100.00;101877.56;5056410;28;20041;-78
2023/04/18 04:29:42;;;;;;;25.77;13.93;;;6.10;99.90;;;5.86;100.00;101924.41;5066141;28;20487;-77
2023/04/18 04:32:08;;;;;;;21.42;13.98;;;6.10;99.90;;;5.97;100.00;101925.16;5046931;28;20168;-76
2023/04/18 04:34:36;;;;;;;20.38;12.68;;;6.10;99.90;;;6.03;100.00;101944.41;5077053;28;20044;-75
2023/04/18 04:37:04;;;;;;;;;;;6.10;99.90;;;6.04;100.00;101948.81;5026543;28;20085;-76
2023/04/18 04:39:35;;;;;;;22.85;13.27;;;6.10;99.90;;;6.05;100.00;101949.66;5052416;28;19967;-76
2023/04/18 04:42:18;;;;;;;22.83;13.70;;;6.10;99.90;;;5.96;100.00;101943.28;5056229;28;20126;-76
2023/04/18 04:44:53;;;;;;;23.35;13.90;;;6.10;99.90;;;6.04;100.00;101951.53;5061276;28;20033;-77
2023/04/18 04:47:20;;;;;;;22.07;13.47;;;6.10;99.90;;;6.06;100.00;101951.34;5060850;28;20040;-77
2023/04/18 04:49:46;;;;;;;22.33;12.75;;;6.20;99.90;;;5.89;100.00;101932.22;5063108;28;20037;-76
2023/04/18 04:52:12;;;;;;;23.85;13.63;;;6.20;99.90;;;6.07;100.00;101953.06;5070789;28;20033;-75
2023/04/18 04:54:37;;;;;;;19.30;12.60;;;6.20;99.90;;;5.90;100.00;101925.81;5075815;28;20052;-75
2023/04/18 04:57:07;;;;;;;20.55;12.95;;;6.20;99.90;;;6.10;100.00;101958.19;5052473;28;20480;-76
2023/04/18 04:59:32;;;;;;;22.60;12.93;;;6.20;99.90;;;6.05;100.00;101968.63;5065502;28;20032;-75
2023/04/18 05:02:00;;;;;;;21.33;13.02;;;6.20;99.90;;;6.15;100.00;101965.84;5059341;28;20036;-75
2023/04/18 05:04:25;;;;;;;19.08;12.38;;;6.30;99.90;;;6.06;100.00;101973.03;5068877;28;20126;-75
2023/04/18 05:06:51;;;;;;;20.67;13.20;;;6.30;99.90;;;5.96;100.00;101945.97;5070051;28;20036;-75
2023/04/18 05:09:17;;;;;;;19.67;13.00;;;6.30;99.90;;;6.00;100.00;101968.22;5062751;28;20056;-75
2023/04/18 05:11:43;;;;;;;20.17;12.05;;;6.30;99.90;;;6.25;100.00;101985.59;5055549;28;20041;-74
2023/04/18 05:14:09;;;;;;;21.35;13.40;;;6.40;99.90;;;6.23;100.00;101974.03;5067452;28;20362;-75
2023/04/18 05:16:34;;;;;;;24.88;13.98;;;6.40;99.90;;;6.32;100.00;101977.69;5063808;28;20036;-75
2023/04/18 05:19:00;;;;;;;18.38;12.10;;;6.40;99.90;;;6.34;100.00;101981.06;5069154;28;20044;-75
2023/04/18 05:21:27;;;;;;;20.40;12.70;;;6.40;99.90;;;6.34;100.00;101986.50;5068657;28;20123;-75
2023/04/18 05:23:53;;;;;;;18.40;11.73;;;6.50;99.90;;;6.31;100.00;101987.69;5069085;28;20033;-74
2023/04/18 05:26:19;;;;;;;20.50;12.30;;;6.50;99.90;;;6.36;100.00;101989.91;5058380;28;20088;-74
2023/04/18 05:28:45;;;;;;;20.23;12.40;;;6.50;99.90;;;6.40;100.00;101985.91;5065149;28;20037;-74
2023/04/18 05:31:10;;;;;;;19.88;12.05;;;6.50;99.90;;;6.42;100.00;101989.31;5069498;28;20404;-74
2023/04/18 05:33:36;;;;;;;18.88;12.18;;;6.60;99.90;;;6.48;100.00;101996.81;5064047;28;20040;-75
2023/04/18 05:36:02;;;;;;;21.15;12.38;;;6.60;99.90;;;6.62;100.00;101994.53;5056136;28;20326;-75
2023/04/18 05:38:27;;;;;;;25.27;12.93;;;6.60;99.90;;;6.55;100.00;101978.06;5069478;28;20033;-75
2023/04/18 05:40:54;;;;;;;19.30;11.75;;;6.70;99.90;;;6.67;100.00;102000.34;5054225;28;20384;-75
2023/04/18 05:43:21;;;;;;;21.13;12.05;;;6.70;99.90;;;6.73;100.00;101991.56;5056876;28;20062;-75
2023/04/18 05:45:46;;;;;;;19.27;11.88;;;6.70;99.90;;;6.78;100.00;101987.53;5059517;28;20054;-75
2023/04/18 05:48:13;;;;;;;19.23;12.63;;;6.80;99.90;;;6.85;100.00;102008.44;5062252;28;20041;-75
2023/04/18 05:50:39;;;;;;;17.45;11.95;;;6.80;99.90;;;6.83;100.00;102006.88;5069905;28;20120;-75
2023/04/18 05:53:05;;;;;;;18.73;12.63;;;6.80;99.90;;;6.80;100.00;102013.50;5069805;28;20407;-74
2023/04/18 05:55:31;;;;;;;19.27;11.70;;;6.80;99.90;;;6.83;100.00;102015.91;5069658;28;20044;-74
2023/04/18 05:57:56;;;;;;;18.35;12.13;;;6.80;99.90;;;6.76;100.00;102017.50;5064670;28;20040;-76
2023/04/18 06:00:23;;;;;;;21.50;12.52;;;6.80;99.90;;;6.76;100.00;102009.38;5064925;28;20434;-76
2023/04/18 06:02:49;;;;;;;19.85;12.18;;;6.80;99.90;;;6.86;100.00;102022.84;5063042;28;20049;-75
2023/04/18 06:05:15;;;;;;;19.23;12.07;;;6.80;99.90;;;6.84;100.00;102014.00;5057331;28;20033;-75
2023/04/18 06:07:41;;;;;;;19.17;12.18;;;6.90;99.90;;;6.79;100.00;102021.78;5067780;28;20050;-75
2023/04/18 06:10:09;;;;;;;18.33;12.05;;;6.90;99.90;;;6.75;100.00;102027.53;5069569;28;20395;-77
2023/04/18 06:12:36;;;;;;;18.73;12.68;;;6.80;99.90;;;6.80;100.00;102034.34;5069654;28;20043;-77
2023/04/18 06:15:02;;;;;;;17.48;11.48;;;6.80;99.90;;;6.80;100.00;102023.47;5068571;28;20052;-77
2023/04/18 06:17:28;;;;;;;19.27;11.82;;;6.90;99.90;;;6.75;100.00;102005.81;5069409;28;20519;-77
2023/04/18 06:19:53;;;;;;;18.00;11.35;;;6.90;99.90;;;6.94;100.00;102030.19;5054937;28;20041;-77
2023/04/18 06:22:19;;;;;;;19.77;12.07;;;6.90;99.90;;;6.87;100.00;102019.13;5059018;28;20029;-77
2023/04/18 06:24:45;;;;;;;20.85;12.50;;;6.90;99.90;;;6.94;100.00;102041.06;5056062;28;20480;-77
2023/04/18 06:27:11;;;;;;;17.42;11.50;;;7.00;99.90;;;7.00;100.00;102032.25;5063243;28;20420;-77
2023/04/18 06:29:37;;;;;;;19.30;13.25;;;7.00;99.90;;;7.03;100.00;102031.97;5073374;28;20119;-76
2023/04/18 06:32:03;;;;;;;19.90;12.63;;;7.10;99.90;;;7.13;100.00;102034.56;5054854;28;20526;-76
2023/04/18 06:34:29;;;;;;;20.05;12.05;;;7.10;99.90;;;7.08;100.00;102020.63;5060426;28;20051;-77
2023/04/18 06:36:55;;;;;;;16.90;12.05;;;7.20;99.90;;;7.10;100.00;102043.03;5063114;28;20032;-77
2023/04/18 06:39:20;;;;;;;19.98;12.30;;;7.20;99.90;;;7.16;100.00;102024.25;5054230;28;20037;-77
2023/04/18 06:41:48;;;;;;;18.27;12.55;;;7.40;99.90;;;7.44;100.00;102039.50;5062573;28;20059;-76
2023/04/18 06:44:23;;;;;;;22.33;12.02;;;7.50;99.90;;;7.54;100.00;102042.94;5066977;28;20101;-77
2023/04/18 06:46:49;;;;;;;17.17;11.73;;;7.70;99.90;;;7.48;100.00;102036.28;5071514;28;20040;-77
2023/04/18 06:49:14;;;;;;;18.98;12.73;;;7.70;99.90;;;7.65;100.00;102049.09;5070139;28;20401;-77
2023/04/18 06:51:40;;;;;;;17.83;11.55;;;7.80;99.90;;;7.73;100.00;102046.44;5066735;28;20097;-75
2023/04/18 06:54:06;;;;;;;18.95;12.02;;;7.80;99.90;;;7.68;100.00;102051.47;5072474;28;20042;-77
2023/04/18 06:56:32;;;;;;;17.45;11.63;;;7.90;99.90;;;7.53;100.00;102049.38;5066266;28;20035;-77
2023/04/18 06:58:58;;;;;;;20.05;11.82;;;7.90;99.90;;;7.41;100.00;102035.25;5064519;28;20066;-77
2023/04/18 07:01:23;;;;;;;19.02;12.30;;;7.80;99.90;;;7.61;100.00;102048.59;5066191;28;20158;-76
2023/04/18 07:03:49;;;;;;;19.08;11.65;;;7.90;99.90;;;7.61;100.00;102054.84;5072833;28;20049;-77
2023/04/18 07:06:15;;;;;;;18.55;12.20;;;7.90;99.90;;;7.71;100.00;102051.19;5054801;28;20029;-76
2023/04/18 07:08:41;;;;;;;23.58;12.82;;;7.90;99.90;;;7.54;100.00;102034.78;5066681;28;20046;-77
2023/04/18 07:11:06;;;;;;;19.45;12.23;;;7.90;99.90;;;7.46;100.00;102030.16;5063291;28;20029;-78
2023/04/18 07:13:32;;;;;;;17.65;11.85;;;7.90;99.90;;;7.83;100.00;102052.56;5051616;28;20406;-76
2023/04/18 07:15:58;;;;;;;17.77;11.95;;;7.90;99.90;;;7.68;100.00;102032.47;5050346;28;20032;-77
2023/04/18 07:18:23;;;;;;;18.20;12.32;;;8.00;99.90;;;7.80;100.00;102047.47;5068380;28;20032;-77
2023/04/18 07:20:49;;;;;;;17.17;11.63;;;8.00;99.90;;;7.37;100.00;102014.00;5066950;28;20041;-76
2023/04/18 07:23:15;;;;;;;16.45;10.70;;;8.00;99.90;;;7.77;100.00;102062.22;5067912;28;20037;-75
2023/04/18 07:25:41;;;;;;;18.40;12.23;;;8.00;99.90;;;7.73;100.00;102046.44;5055435;28;20051;-75
2023/04/18 07:28:06;;;;;;;19.02;11.70;;;8.10;99.90;;;7.39;100.00;102028.25;5062897;28;20040;-76
2023/04/18 07:30:32;;;;;;;18.77;11.98;;;8.00;99.90;;;7.82;100.00;102061.72;5065680;28;20378;-76
2023/04/18 07:32:58;;;;;;;19.15;11.63;;;8.10;99.90;;;8.00;100.00;102060.78;5058143;28;20055;-76
2023/04/18 07:35:23;;;;;;;17.20;11.35;;;8.20;99.90;;;8.02;99.45;102058.75;5061899;28;20044;-75
2023/04/18 07:37:49;;;;;;;17.95;11.07;;;8.20;99.90;;;7.99;98.99;102049.06;5069011;28;20048;-76
2023/04/18 07:40:15;;;;;;;18.35;11.85;;;8.20;99.90;;;8.01;97.92;102043.47;5069203;28;20103;-77
2023/04/18 07:42:42;;;;;;;17.15;11.18;;;8.20;99.90;;;7.93;97.72;102060.59;5069509;28;20044;-77
2023/04/18 07:45:08;;;;;;;17.33;11.48;;;8.10;99.90;;;7.83;98.84;102068.03;5067662;28;20033;-75
2023/04/18 07:47:34;;;;;;;17.65;11.73;;;8.00;99.90;;;7.88;99.42;102058.34;5068595;28;20049;-76
2023/04/18 07:50:01;;;;;;;17.27;11.63;;;8.00;99.90;;;7.97;100.00;102067.38;5063926;28;20121;-76
2023/04/18 07:52:27;;;;;;;18.25;12.15;;;8.00;99.90;;;7.98;99.83;102060.09;5060341;28;20040;-76
2023/04/18 07:54:53;;;;;;;17.83;11.57;;;8.10;99.90;;;7.89;98.91;102061.94;5061462;28;20409;-76
2023/04/18 07:57:18;;;;;;;18.88;11.27;;;8.10;99.90;;;8.01;98.24;102076.06;5048014;28;20047;-76
2023/04/18 07:59:45;;;;;;;17.65;12.25;;;8.20;99.90;;;8.14;97.74;102070.16;5061593;28;20042;-76
2023/04/18 08:02:10;;;;;;;18.05;11.82;;;8.30;99.90;;;8.39;96.07;102068.34;5063298;28;20048;-76
2023/04/18 08:04:36;;;;;;;18.27;11.27;;;8.50;99.90;;;8.51;94.87;102062.63;5064631;28;20436;-76
2023/04/18 08:07:02;;;;;;;17.83;11.98;;;8.60;99.90;;;8.97;94.00;102070.28;5061170;28;20152;-75
2023/04/18 08:09:27;;;;;;;17.13;11.57;;;8.90;99.90;;;9.04;93.60;102076.72;5062401;28;20032;-75
2023/04/18 08:11:55;;;;;;;19.08;11.80;;;9.10;99.90;;;9.16;91.88;102074.50;5060509;28;20123;-75
2023/04/18 08:14:21;;;;;;;20.15;11.90;;;9.20;99.90;;;9.63;91.52;102064.69;5060331;28;20044;-75
2023/04/18 08:16:47;;;;;;;15.75;10.80;;;9.50;99.90;;;10.04;91.36;102066.38;5070680;28;20415;-74
2023/04/18 08:19:12;;;;;;;18.35;11.00;;;10.00;99.90;;;10.53;86.92;102064.41;5064717;28;20040;-73
2023/04/18 08:21:38;;;;;;;18.27;11.00;;;10.50;99.90;;;10.83;86.58;102064.50;5062466;28;20033;-74
2023/04/18 08:24:04;;;;;;;16.50;11.10;;;10.90;99.90;;;10.43;83.73;102049.13;5057258;28;20476;-74
2023/04/18 08:26:30;;;;;;;17.10;11.32;;;11.00;99.90;;;10.54;85.38;102060.63;5066033;28;20045;-74
2023/04/18 08:28:55;;;;;;;15.05;11.27;;;11.00;99.90;;;10.66;84.07;102067.38;5070804;28;20033;-76
2023/04/18 08:31:21;;;;;;;14.70;10.52;;;11.00;99.90;;;11.08;81.54;102056.94;5070837;28;22221;-75
2023/04/18 08:33:47;;;;;;;16.80;10.55;;;11.20;99.90;;;11.24;79.69;102055.94;5064812;28;20052;-75
2023/04/18 08:36:12;;;;;;;16.50;9.60;;;11.40;99.90;;;11.47;74.58;102044.06;5071008;28;20395;-76
2023/04/18 08:38:38;;;;;;;13.60;9.77;;;11.50;99.90;;;11.56;74.13;102045.66;5059224;28;20029;-76
2023/04/18 08:41:04;;;;;;;14.75;9.93;;;11.50;99.90;;;11.92;72.13;102044.00;5066673;28;20051;-74
2023/04/18 08:43:30;;;;;;;13.30;8.95;;;11.80;99.90;;;12.09;70.93;102041.94;5070839;28;20040;-77
2023/04/18 08:45:59;;;;;;;14.63;10.48;;;12.00;99.90;;;12.22;74.05;102047.56;5072558;28;20039;-77
2023/04/18 08:48:29;;;;;;;13.48;9.70;;;12.40;99.90;;;12.67;70.96;102049.25;5068755;28;20383;-75
2023/04/18 08:50:58;;;;;;;14.35;9.00;;;12.70;99.90;;;13.08;67.21;102045.81;5060504;28;20067;-75
2023/04/18 08:53:25;;;;;;;14.57;8.95;;;13.00;99.90;;;13.07;64.01;102043.25;5060394;28;20042;-75
2023/04/18 08:55:55;;;;;;;11.48;8.35;;;13.20;99.90;;;13.48;64.79;102041.63;5068198;28;20033;-75
2023/04/18 08:58:22;;;;;;;11.75;8.10;;;13.50;99.90;;;13.72;64.35;102037.56;5070093;28;20115;-75
2023/04/18 09:00:53;;;;;;;11.38;7.90;;;13.80;99.90;;;13.93;60.86;102028.34;5059854;28;20826;-76
2023/04/18 09:03:40;;;;;;;10.30;7.28;;;14.10;99.90;;;13.89;59.18;102027.06;5066942;28;20060;-75
2023/04/18 09:06:08;;;;;;;10.18;7.80;;;14.20;99.90;;;14.17;59.10;102038.97;5066622;28;20518;-74
2023/04/18 09:08:34;;;;;;;10.73;7.53;;;14.30;99.90;;;14.39;57.92;102029.50;5069818;28;20032;-77
2023/04/18 09:11:30;;;;;;;10.55;8.23;;;14.50;99.90;;;14.04;59.24;102040.63;5069940;28;20609;-77
2023/04/18 09:13:57;;;;;;;11.45;8.10;;;14.60;99.90;;;13.94;61.43;102041.00;5064507;28;20055;-76
2023/04/18 09:16:24;;;;;;;11.13;7.37;;;14.50;99.90;;;14.26;60.61;102039.63;5069488;28;20068;-76
2023/04/18 09:19:17;;;;;;;9.73;7.15;;;14.60;99.90;;;14.54;60.54;102044.97;5070587;28;20071;-76
2023/04/18 09:21:47;;;;;;;10.10;7.13;;;14.70;99.90;;;14.17;58.70;102036.22;5057272;28;20366;-76
2023/04/18 09:24:19;;;;;;;9.98;7.60;;;14.70;99.90;;;14.17;56.84;102044.47;5051845;28;20061;-76
2023/04/18 09:26:48;;;;;;;10.27;7.50;;;14.60;99.90;;;14.03;60.55;102052.66;5051110;28;20048;-76
2023/04/18 09:29:16;;;;;;;10.80;7.68;;;14.40;99.90;;;13.83;58.69;102049.84;5062809;28;20495;-76
2023/04/18 09:32:00;;;;;;;9.95;7.22;;;14.20;99.90;;;13.52;57.88;102040.19;5065048;28;20400;-76
2023/04/18 09:34:29;;;;;;;10.65;7.15;;;14.10;99.90;;;13.16;59.66;102038.47;5063798;28;20044;-76
2023/04/18 09:37:09;;;;;;;11.85;7.82;;;13.70;99.90;;;12.72;60.44;102045.94;5067629;28;20084;-76
2023/04/18 09:39:38;;;;;;;10.73;7.80;;;13.50;99.90;;;12.33;61.26;102042.59;5061959;28;20036;-77
2023/04/18 09:42:04;;;;;;;11.40;7.45;;;13.10;99.90;;;12.16;63.11;101998.22;5077031;28;20535;-78
2023/04/18 09:44:31;;;;;;;13.18;7.88;;;13.00;99.90;;;12.80;62.43;102060.34;5065961;28;20044;-76
2023/04/18 09:46:56;;;;;;;9.70;7.38;;;13.20;99.90;;;13.19;61.65;102049.88;5061518;28;20035;-78
2023/04/18 09:49:22;;;;;;;10.73;7.65;;;13.50;99.90;;;13.63;60.42;102045.09;5061209;28;20024;-78
2023/04/18 09:51:53;;;;;;;9.50;7.00;;;13.80;99.90;;;14.17;59.80;102049.94;5068890;28;20029;-79
2023/04/18 09:54:23;;;;;;;8.50;6.22;;;14.40;99.90;;;13.80;58.07;102042.03;5065479;28;20365;-78
2023/04/18 09:56:52;;;;;;;7.63;5.80;;;14.40;99.90;;;13.91;57.08;102041.44;5071268;28;20060;-79
2023/04/18 09:59:47;;;;;;;7.97;5.97;;;14.50;99.80;;;13.13;57.30;102036.13;5061908;28;20044;-78
2023/04/18 10:02:21;;;;;;;8.38;6.40;;;14.10;99.70;;;13.52;57.91;102051.16;5070551;28;20511;-77
2023/04/18 10:04:50;;;;;;;6.97;5.40;;;14.00;99.90;;;14.12;55.32;102039.59;5069536;28;20044;-77
2023/04/18 10:07:16;;;;;;;8.73;6.13;;;14.30;98.90;;;14.94;54.70;102038.69;5068601;28;20142;-77
2023/04/18 10:09:46;;;;;;;9.30;6.22;;;15.30;98.00;;;15.27;53.29;102037.78;5061438;28;20431;-78